Time;durP1;ratioP1;P1;durP2;ratioP2;P2;SDS_P1;SDS_P2;PMS_P1;PMS_P2;Temp;Humidity;BMP_temperature;BMP_pressure;BME280_temperature;BME280_humidity;BME280_pressure;Samples;Min_cycle;Max_cycle;Signal;HPM_P1;HPM_P2
2023/03/01 00:01:24;;;;;;;22.92;18.45;;;;;;;-4.93;100.00;159296.44;4990102;28;20409;-64
2023/03/01 00:03:50;;;;;;;;;;;;;;;-4.89;100.00;159305.78;4991386;28;20057;-64
2023/03/01 00:06:16;;;;;;;19.48;14.68;;;;;;;-4.91;100.00;159300.47;4989220;28;19921;-64
2023/03/01 00:08:42;;;;;;;18.20;15.68;;;;;;;-4.92;100.00;159299.09;4971497;28;20175;-64
2023/03/01 00:11:11;;;;;;;24.60;18.67;;;;;;;-4.96;100.00;159288.44;4970031;28;20045;-64
2023/03/01 00:13:37;;;;;;;18.05;16.05;;;;;;;-5.00;100.00;159279.09;4971682;28;20058;-65
2023/03/01 00:16:07;;;;;;;19.50;16.27;;;;;;;-5.08;100.00;159256.38;4970274;28;20046;-65
2023/03/01 00:18:33;;;;;;;32.50;18.17;;;;;;;-5.06;100.00;159261.72;4969987;28;20058;-63
2023/03/01 00:20:59;;;;;;;21.58;16.75;;;;;;;-5.08;100.00;159256.38;4972536;28;20443;-63
2023/03/01 00:23:25;;;;;;;26.35;17.23;;;;;;;-5.10;100.00;159253.69;4993676;28;20022;-64
2023/03/01 00:25:51;;;;;;;27.35;17.33;;;;;;;-5.11;100.00;159251.06;4989294;28;20410;-64
2023/03/01 00:28:17;;;;;;;25.38;18.00;;;;;;;-5.12;100.00;159248.38;4975707;28;20062;-63
2023/03/01 00:30:42;;;;;;;23.23;16.08;;;;;;;-5.12;100.00;159247.03;4973533;28;20058;-63
2023/03/01 00:33:07;;;;;;;30.17;20.33;;;;;;;-5.14;100.00;159243.03;4975006;28;20402;-63
2023/03/01 00:35:33;;;;;;;22.83;17.60;;;;;;;-5.17;100.00;159233.69;4973587;28;20422;-63
2023/03/01 00:37:59;;;;;;;22.38;16.52;;;;;;;-5.19;100.00;159228.34;4975612;28;20049;-63
2023/03/01 00:40:26;;;;;;;20.77;15.20;;;;;;;-5.23;100.00;159219.00;4973410;28;20550;-63
2023/03/01 00:42:52;;;;;;;25.77;17.10;;;;;;;-5.22;100.00;159221.69;4974845;28;20034;-63
2023/03/01 00:45:17;;;;;;;23.48;15.15;;;;;;;-5.23;100.00;159219.00;4968726;28;20094;-63
2023/03/01 00:47:43;;;;;;;21.50;14.63;;;;;;;-5.25;100.00;159213.69;4974706;28;20034;-63
2023/03/01 00:50:09;;;;;;;24.20;15.52;;;;;;;-5.26;100.00;159211.03;4973509;28;20449;-63
2023/03/01 00:52:34;;;;;;;23.15;16.42;;;;;;;-5.21;100.00;159224.34;4974685;28;20049;-63
2023/03/01 00:54:59;;;;;;;18.60;15.98;;;;;;;-5.19;100.00;159229.72;4973126;28;20035;-63
2023/03/01 00:57:25;;;;;;;21.52;18.63;;;;;;;-5.19;100.00;159229.72;4974920;28;20026;-62
2023/03/01 00:59:52;;;;;;;23.92;15.98;;;;;;;-5.22;100.00;159221.69;4973394;28;20086;-63
2023/03/01 01:02:18;;;;;;;26.65;18.13;;;;;;;-5.28;100.00;159206.97;4974521;28;20486;-63
2023/03/01 01:04:43;;;;;;;26.05;18.92;;;;;;;-5.34;100.00;159189.66;4972981;28;20014;-63
2023/03/01 01:07:09;;;;;;;21.27;15.82;;;;;;;-5.38;100.00;159180.31;4974703;28;20022;-63
2023/03/01 01:09:35;;;;;;;24.25;17.20;;;;;;;-5.47;100.00;159157.59;4972708;28;20050;-62
2023/03/01 01:12:00;;;;;;;24.10;17.13;;;;;;;-5.33;100.00;159192.34;4974669;28;20045;-63
2023/03/01 01:14:25;;;;;;;28.92;19.67;;;;;;;-5.32;100.00;159194.97;4974629;28;20034;-63
2023/03/01 01:16:51;;;;;;;24.77;17.48;;;;;;;-5.37;100.00;159181.63;4972649;28;20038;-63
2023/03/01 01:19:16;;;;;;;24.30;17.65;;;;;;;-5.41;100.00;159172.28;4975516;28;20026;-63
2023/03/01 01:21:45;;;;;;;24.42;16.77;;;;;;;-5.44;100.00;159164.31;4972799;28;20490;-64
2023/03/01 01:24:11;;;;;;;20.33;16.77;;;;;;;-5.46;100.00;159158.97;4974100;28;20081;-63
2023/03/01 01:26:37;;;;;;;25.33;14.02;;;;;;;-5.47;100.00;159156.28;4972890;28;20395;-62
2023/03/01 01:29:04;;;;;;;27.90;16.55;;;;;;;-5.50;100.00;159148.25;4974426;28;20037;-63
2023/03/01 01:31:31;;;;;;;17.17;15.45;;;;;;;-5.50;100.00;159149.63;4971135;28;20075;-64
2023/03/01 01:33:58;;;;;;;17.25;15.38;;;;;;;-5.49;100.00;159152.28;4974400;28;20390;-63
2023/03/01 01:36:23;;;;;;;23.33;16.98;;;;;;;-5.44;100.00;159165.63;4972783;28;20039;-63
2023/03/01 01:38:49;;;;;;;20.73;14.90;;;;;;;-5.42;100.00;159170.97;4973934;28;20398;-63
2023/03/01 01:41:14;;;;;;;20.73;15.75;;;;;;;-5.39;100.00;159176.28;4972460;28;20046;-63
2023/03/01 01:43:46;;;;;;;25.70;18.35;;;;;;;-5.38;100.00;159180.31;4973876;28;20498;-63
2023/03/01 01:46:28;;;;;;;25.85;16.17;;;;;;;-5.38;100.00;159178.97;4972519;28;20383;-62
2023/03/01 01:49:03;;;;;;;20.75;17.73;;;;;;;-5.43;100.00;159168.31;4973632;28;20027;-62
2023/03/01 01:51:38;;;;;;;21.35;16.58;;;;;;;-5.47;100.00;159156.28;4972618;28;20129;-63
2023/03/01 01:54:08;;;;;;;24.23;15.55;;;;;;;-5.56;100.00;159133.63;4974068;28;20085;-62
2023/03/01 01:56:36;;;;;;;29.20;16.45;;;;;;;-5.70;100.00;159096.25;4972210;28;20043;-63
2023/03/01 01:59:02;;;;;;;17.20;14.82;;;;;;;-5.70;100.00;159096.25;4973708;28;20038;-63
2023/03/01 02:01:27;;;;;;;19.40;15.48;;;;;;;-5.79;100.00;159073.53;4972092;28;20126;-63
2023/03/01 02:03:52;;;;;;;19.38;13.95;;;;;;;-5.84;100.00;159061.53;4973215;28;20031;-63
2023/03/01 02:06:28;;;;;;;20.63;13.98;;;;;;;-5.88;100.00;159050.88;4972362;28;20149;-63
2023/03/01 02:08:58;;;;;;;20.45;14.73;;;;;;;-5.92;100.00;159040.22;4973001;28;20043;-62
2023/03/01 02:11:25;;;;;;;19.40;14.05;;;;;;;-5.96;100.00;159030.88;4972092;28;20517;-62
2023/03/01 02:13:52;;;;;;;23.42;16.33;;;;;;;-5.96;100.00;159030.88;4984323;28;20037;-63
2023/03/01 02:16:18;;;;;;;21.60;17.70;;;;;;;-5.95;100.00;159032.19;4991032;28;20070;-62
2023/03/01 02:18:44;;;;;;;20.27;15.45;;;;;;;-5.95;100.00;159032.19;4992703;28;20065;-62
2023/03/01 02:21:25;;;;;;;21.90;15.40;;;;;;;-5.95;100.00;159032.19;4991576;28;20038;-63
2023/03/01 02:23:50;;;;;;;19.13;15.57;;;;;;;-5.96;100.00;159029.53;4991570;28;20509;-64
2023/03/01 02:26:40;;;;;;;24.50;15.70;;;;;;;-5.97;100.00;159028.22;4991414;28;20038;-63
2023/03/01 02:29:06;;;;;;;24.40;16.90;;;;;;;-5.97;100.00;159026.84;4992879;28;20121;-64
2023/03/01 02:31:44;;;;;;;19.13;17.00;;;;;;;-5.98;100.00;159024.19;4990434;28;20182;-64
2023/03/01 02:34:14;;;;;;;17.98;15.75;;;;;;;-5.90;100.00;159045.53;4992871;28;20494;-64
2023/03/01 02:37:00;;;;;;;23.48;17.13;;;;;;;-5.85;100.00;159058.91;4990953;28;20039;-64
2023/03/01 02:39:33;;;;;;;22.98;16.30;;;;;;;-5.82;100.00;159066.88;4992130;28;20477;-64
2023/03/01 02:42:01;;;;;;;27.45;19.00;;;;;;;-5.82;100.00;159066.88;5010854;28;20050;-64
2023/03/01 02:44:26;;;;;;;20.77;18.05;;;;;;;-5.90;100.00;159045.53;5011635;28;20084;-64
2023/03/01 02:46:55;;;;;;;24.35;18.42;;;;;;;-5.87;100.00;159053.56;5004547;28;20042;-64
2023/03/01 02:49:22;;;;;;;;;;;;;;;-5.83;100.00;159064.19;5012366;28;20021;-63
2023/03/01 02:52:12;;;;;;;28.75;19.85;;;;;;;-5.79;100.00;159073.53;4989789;28;19926;-64
2023/03/01 02:54:54;;;;;;;24.67;16.48;;;;;;;-5.84;100.00;159061.53;4970981;28;20110;-63
2023/03/01 02:57:21;;;;;;;18.40;14.43;;;;;;;-5.90;100.00;159045.53;4972938;28;20031;-64
2023/03/01 02:59:48;;;;;;;20.10;15.82;;;;;;;-5.97;100.00;159026.84;4971041;28;20501;-64
2023/03/01 03:02:37;;;;;;;23.38;16.92;;;;;;;-6.10;100.00;158993.53;4972245;28;20076;-64
2023/03/01 03:05:08;;;;;;;33.28;19.58;;;;;;;-6.01;100.00;159016.25;4971519;28;20092;-64
2023/03/01 03:07:34;;;;;;;19.67;16.83;;;;;;;-6.02;100.00;159013.59;4972540;28;20066;-64
2023/03/01 03:10:02;;;;;;;23.98;18.05;;;;;;;-6.05;100.00;159006.91;4970743;28;20502;-64
2023/03/01 03:12:27;;;;;;;23.95;17.00;;;;;;;-6.08;100.00;159000.25;4972841;28;20023;-64
2023/03/01 03:14:53;;;;;;;23.77;17.63;;;;;;;-6.23;100.00;158960.25;4970801;28;20474;-64
2023/03/01 03:17:18;;;;;;;25.38;17.95;;;;;;;-6.11;100.00;158992.22;4972070;28;20026;-63
2023/03/01 03:19:45;;;;;;;23.90;16.85;;;;;;;-6.11;100.00;158992.22;4970772;28;20049;-62
2023/03/01 03:22:11;;;;;;;23.73;17.15;;;;;;;-6.12;100.00;158989.56;4972356;28;20019;-63
2023/03/01 03:24:37;;;;;;;21.42;16.15;;;;;;;-6.13;100.00;158986.88;4970541;28;20401;-63
2023/03/01 03:27:03;;;;;;;25.02;18.52;;;;;;;-6.13;100.00;158986.88;4972591;28;20019;-62
2023/03/01 03:29:28;;;;;;;23.23;17.23;;;;;;;-6.10;100.00;158994.91;4972144;28;20034;-63
2023/03/01 03:31:53;;;;;;;27.65;16.15;;;;;;;-6.12;100.00;158989.56;4970185;28;20058;-63
2023/03/01 03:34:19;;;;;;;26.80;17.80;;;;;;;-6.13;100.00;158985.56;4972638;28;20038;-63
2023/03/01 03:36:44;;;;;;;26.27;17.38;;;;;;;-6.16;100.00;158978.91;4970255;28;20391;-63
2023/03/01 03:39:10;;;;;;;26.75;16.85;;;;;;;-6.23;100.00;158960.25;4972054;28;20038;-63
2023/03/01 03:41:35;;;;;;;21.10;15.15;;;;;;;-6.30;100.00;158942.88;4970469;28;20047;-63
2023/03/01 03:44:01;;;;;;;24.50;17.42;;;;;;;-6.28;100.00;158946.88;4972068;28;20073;-63
2023/03/01 03:46:26;;;;;;;25.30;15.50;;;;;;;-6.30;100.00;158942.88;4979532;28;20047;-63
2023/03/01 03:48:51;;;;;;;23.55;17.50;;;;;;;-6.32;100.00;158937.53;4991143;28;20026;-62
2023/03/01 03:51:18;;;;;;;26.23;16.80;;;;;;;-6.31;100.00;158938.91;4989988;28;20497;-62
2023/03/01 03:53:44;;;;;;;27.63;18.67;;;;;;;-6.32;100.00;158937.53;4991018;28;20033;-62
2023/03/01 03:56:10;;;;;;;23.95;18.42;;;;;;;-6.34;100.00;158930.88;4992830;28;20046;-62
2023/03/01 03:58:35;;;;;;;27.95;16.60;;;;;;;-6.33;100.00;158933.53;4995050;28;20027;-62
2023/03/01 04:01:01;;;;;;;26.10;17.58;;;;;;;-6.35;100.00;158928.19;4993291;28;20073;-62
2023/03/01 04:03:27;;;;;;;22.08;17.40;;;;;;;-6.42;100.00;158912.19;4995063;28;20076;-63
2023/03/01 04:05:53;;;;;;;21.40;15.98;;;;;;;-6.37;100.00;158925.53;4993713;28;20038;-63
2023/03/01 04:08:21;;;;;;;22.63;17.75;;;;;;;-6.38;100.00;158922.91;4977011;28;20045;-62
2023/03/01 04:10:50;;;;;;;24.05;18.02;;;;;;;-6.38;100.00;158922.91;4974191;28;20031;-62
2023/03/01 04:13:16;;;;;;;;;;;;;;;-6.39;100.00;158920.22;4976267;28;20031;-62
2023/03/01 04:15:42;;;;;;;22.02;16.23;;;;;;;-6.40;100.00;158917.56;4973864;28;19918;-61
2023/03/01 04:18:11;;;;;;;23.85;16.20;;;;;;;-6.41;100.00;158914.88;4975474;28;20386;-63
2023/03/01 04:20:37;;;;;;;23.05;15.85;;;;;;;-6.42;100.00;158912.19;4974020;28;20039;-63
2023/03/01 04:23:27;;;;;;;27.27;18.30;;;;;;;-6.42;100.00;158912.19;4975068;28;20030;-63
2023/03/01 04:25:55;;;;;;;25.98;16.67;;;;;;;-6.41;100.00;158913.56;4973836;28;20070;-63
2023/03/01 04:28:26;;;;;;;26.58;20.23;;;;;;;-6.54;100.00;158880.22;4975317;28;20029;-63
2023/03/01 04:30:55;;;;;;;22.67;16.25;;;;;;;-6.57;100.00;158872.19;4973661;28;20042;-63
2023/03/01 04:33:21;;;;;;;25.05;18.48;;;;;;;-6.62;100.00;158858.88;4975295;28;20027;-63
2023/03/01 04:35:50;;;;;;;27.23;19.35;;;;;;;-6.64;100.00;158853.53;4973344;28;20427;-63
2023/03/01 04:38:17;;;;;;;27.98;18.52;;;;;;;-6.64;100.00;158854.91;4975005;28;20050;-63
2023/03/01 04:40:43;;;;;;;24.38;19.50;;;;;;;-6.65;100.00;158852.22;4973656;28;20065;-65
2023/03/01 04:43:10;;;;;;;27.40;20.45;;;;;;;-6.66;100.00;158848.25;4978338;28;20030;-65
2023/03/01 04:45:35;;;;;;;25.98;19.88;;;;;;;-6.65;100.00;158850.84;4992594;28;20393;-64
2023/03/01 04:48:01;;;;;;;23.58;17.60;;;;;;;-6.71;100.00;158837.53;4994826;28;20033;-65
2023/03/01 04:50:27;;;;;;;25.60;19.98;;;;;;;-6.72;100.00;158833.56;4993296;28;20042;-64
2023/03/01 04:52:52;;;;;;;22.20;17.83;;;;;;;-6.74;100.00;158829.53;4994148;28;20026;-64
2023/03/01 04:55:18;;;;;;;18.98;16.70;;;;;;;-6.79;100.00;158816.19;4992914;28;20509;-64
2023/03/01 04:57:44;;;;;;;23.58;18.27;;;;;;;-6.78;100.00;158817.56;4993780;28;20026;-64
2023/03/01 05:00:19;;;;;;;27.58;18.50;;;;;;;-6.78;100.00;158817.56;4992552;28;20045;-64
2023/03/01 05:02:46;;;;;;;28.65;20.20;;;;;;;-6.79;100.00;158816.19;4994158;28;20034;-64
2023/03/01 05:05:12;;;;;;;30.52;18.55;;;;;;;-6.82;100.00;158808.25;4992881;28;20031;-64
2023/03/01 05:07:38;;;;;;;27.30;19.10;;;;;;;-6.86;100.00;158798.91;4993120;28;20033;-64
2023/03/01 05:10:03;;;;;;;24.27;19.42;;;;;;;-6.88;100.00;158792.19;4973358;28;20051;-64
2023/03/01 05:12:29;;;;;;;25.50;19.48;;;;;;;-6.87;100.00;158794.88;4979015;28;20025;-60
2023/03/01 05:14:54;;;;;;;24.67;19.15;;;;;;;-6.90;100.00;158786.91;4979596;28;20572;-60
2023/03/01 05:17:19;;;;;;;27.25;18.73;;;;;;;-6.91;100.00;158784.22;4986391;28;20035;-60
2023/03/01 05:19:46;;;;;;;24.83;17.98;;;;;;;-6.92;100.00;158781.56;4974741;28;20069;-60
2023/03/01 05:22:11;;;;;;;30.67;18.60;;;;;;;-6.94;100.00;158776.22;4991850;28;20101;-60
2023/03/01 05:24:38;;;;;;;32.38;21.70;;;;;;;-6.97;100.00;158768.25;4981440;28;20430;-60
2023/03/01 05:27:04;;;;;;;24.02;19.33;;;;;;;-6.98;100.00;158765.56;4993842;28;20685;-60
2023/03/01 05:29:34;;;;;;;27.55;19.38;;;;;;;-7.03;100.00;158754.88;4980042;28;20022;-60
2023/03/01 05:32:01;;;;;;;26.50;20.05;;;;;;;-6.99;100.00;158762.91;4973036;28;20050;-60
2023/03/01 05:34:29;;;;;;;33.38;20.20;;;;;;;-7.04;100.00;158752.25;4977676;28;20018;-60
2023/03/01 05:36:55;;;;;;;27.10;17.75;;;;;;;-6.96;100.00;158770.91;5001815;28;20535;-60
2023/03/01 05:39:25;;;;;;;35.17;22.45;;;;;;;-6.96;100.00;158770.91;5013267;28;20022;-60
2023/03/01 05:41:58;;;;;;;25.40;18.63;;;;;;;-6.95;100.00;158773.53;5011497;28;20110;-60
2023/03/01 05:44:25;;;;;;;34.10;19.27;;;;;;;-6.96;100.00;158770.91;5012561;28;20030;-60
2023/03/01 05:46:51;;;;;;;29.17;21.05;;;;;;;-6.94;100.00;158777.56;5011399;28;20088;-60
2023/03/01 05:49:16;;;;;;;27.17;18.38;;;;;;;-6.90;100.00;158786.91;5008056;28;20653;-61
2023/03/01 05:51:46;;;;;;;25.80;17.90;;;;;;;-6.94;100.00;158776.22;5010798;28;20049;-61
2023/03/01 05:54:12;;;;;;;24.90;19.85;;;;;;;-6.94;100.00;158776.22;5013153;28;20479;-61
2023/03/01 05:56:37;;;;;;;28.98;20.05;;;;;;;-6.97;100.00;158768.25;5011152;28;20045;-61
2023/03/01 05:59:04;;;;;;;26.75;18.75;;;;;;;-6.98;100.00;158765.56;5012774;28;20021;-62
2023/03/01 06:01:30;;;;;;;25.77;18.45;;;;;;;-7.05;100.00;158748.22;5011157;28;20096;-61
2023/03/01 06:03:56;;;;;;;24.00;19.10;;;;;;;-7.12;100.00;158730.94;5012625;28;20030;-61
2023/03/01 06:06:22;;;;;;;33.13;19.85;;;;;;;-7.17;100.00;158717.56;5011001;28;20073;-61
2023/03/01 06:08:47;;;;;;;29.02;20.70;;;;;;;-7.15;100.00;158722.91;5012334;28;20509;-61
2023/03/01 06:11:12;;;;;;;29.13;20.90;;;;;;;-7.16;100.00;158720.25;5011209;28;20038;-61
2023/03/01 06:13:38;;;;;;;37.22;23.00;;;;;;;-7.19;100.00;158713.59;5011915;28;20033;-61
2023/03/01 06:16:07;;;;;;;42.65;25.13;;;;;;;-7.23;100.00;158702.94;5011078;28;20050;-61
2023/03/01 06:18:32;;;;;;;36.92;21.92;;;;;;;-7.19;100.00;158712.28;5011515;28;20107;-61
2023/03/01 06:20:58;;;;;;;27.45;20.70;;;;;;;-7.26;100.00;158693.63;5010550;28;20041;-61
2023/03/01 06:23:23;;;;;;;28.85;20.67;;;;;;;-7.37;100.00;158666.94;5012609;28;20018;-61
2023/03/01 06:25:48;;;;;;;25.38;19.55;;;;;;;-7.26;100.00;158693.63;5010880;28;20139;-61
2023/03/01 06:28:14;;;;;;;28.60;20.35;;;;;;;-7.27;100.00;158690.94;5011880;28;20076;-61
2023/03/01 06:30:39;;;;;;;29.08;18.58;;;;;;;-7.29;100.00;158686.91;5010718;28;20137;-61
2023/03/01 06:33:05;;;;;;;22.92;18.17;;;;;;;-7.28;100.00;158688.28;5012263;28;20025;-61
2023/03/01 06:35:30;;;;;;;25.02;19.33;;;;;;;-7.26;100.00;158693.63;5010120;28;20041;-61
2023/03/01 06:37:57;;;;;;;27.95;19.52;;;;;;;-7.23;100.00;158701.56;5012321;28;20034;-61
2023/03/01 06:40:23;;;;;;;25.02;18.38;;;;;;;-7.14;100.00;158725.59;5010617;28;20030;-61
2023/03/01 06:42:50;;;;;;;29.05;20.35;;;;;;;-7.01;100.00;158758.91;5011267;28;20041;-62
2023/03/01 06:45:16;;;;;;;27.52;19.15;;;;;;;-6.95;100.00;158774.91;5004531;28;20109;-61
2023/03/01 06:47:42;;;;;;;29.35;18.75;;;;;;;-6.88;100.00;158792.19;4991584;28;20072;-61
2023/03/01 06:50:08;;;;;;;30.13;19.05;;;;;;;-6.79;100.00;158816.19;4988826;28;20078;-61
2023/03/01 06:52:33;;;;;;;24.77;18.67;;;;;;;-6.73;100.00;158832.19;4989931;28;20219;-62
2023/03/01 06:54:59;;;;;;;27.23;20.98;;;;;;;-6.72;100.00;158834.88;4988830;28;20502;-61
2023/03/01 06:57:24;;;;;;;26.75;18.90;;;;;;;-6.59;100.00;158866.91;4989971;28;20050;-61
2023/03/01 06:59:50;;;;;;;28.08;20.45;;;;;;;-6.53;100.00;158882.91;4989359;28;20026;-61
2023/03/01 07:02:16;;;;;;;24.38;19.67;;;;;;;-6.47;100.00;158897.53;4989725;28;20525;-61
2023/03/01 07:04:42;;;;;;;33.35;21.42;;;;;;;-6.40;100.00;158917.56;4969956;28;20035;-62
2023/03/01 07:07:08;;;;;;;34.35;18.55;;;;;;;-6.32;100.00;158936.22;4972384;28;20041;-62
2023/03/01 07:09:33;;;;;;;27.00;20.58;;;;;;;-6.26;100.00;158952.22;4981440;28;20054;-60
2023/03/01 07:11:59;;;;;;;34.83;19.10;;;;;;;-6.08;100.00;159000.25;4991519;28;20026;-61
2023/03/01 07:14:25;;;;;;;26.15;20.27;;;;;;;-5.93;100.00;159037.56;4991703;28;20339;-62
2023/03/01 07:16:51;;;;;;;26.00;19.80;;;;;;;-5.81;100.00;159069.56;4989947;28;20728;-61
2023/03/01 07:19:17;;;;;;;26.42;18.90;;;;;;;-5.67;100.00;159105.59;4991567;28;20057;-62
2023/03/01 07:21:42;;;;;;;25.23;20.35;;;;;;;-5.52;100.00;159144.28;4985980;28;20046;-61
2023/03/01 07:24:08;;;;;;;25.83;18.50;;;;;;;-5.46;100.00;159158.97;4991799;28;20022;-61
2023/03/01 07:26:34;;;;;;;29.63;19.92;;;;;;;-5.25;100.00;159213.69;4989757;28;20042;-61
2023/03/01 07:29:00;;;;;;;26.77;20.38;;;;;;;-5.08;100.00;159257.72;4991495;28;20045;-61
2023/03/01 07:31:27;;;;;;;28.08;21.80;;;;;;;-4.90;100.00;159304.47;4990004;28;20100;-62
2023/03/01 07:33:53;;;;;;;32.08;21.48;;;;;;;-4.75;100.00;159341.84;4991638;28;20377;-61
2023/03/01 07:36:19;;;;;;;32.00;22.17;;;;;;;-4.54;100.00;159397.91;4989434;28;20038;-62
2023/03/01 07:38:44;;;;;;;22.60;19.00;;;;;;;-4.32;100.00;159454.00;4991276;28;20389;-61
2023/03/01 07:41:10;;;;;;;26.27;18.42;;;;;;;-4.10;100.00;159511.47;4989985;28;20483;-61
2023/03/01 07:43:35;;;;;;;29.05;21.85;;;;;;;-3.92;100.00;159558.22;4990757;28;20386;-61
2023/03/01 07:46:01;;;;;;;28.02;23.33;;;;;;;-3.68;100.00;159619.66;4989947;28;20494;-60
2023/03/01 07:48:28;;;;;;;20.02;17.40;;;;;;;-3.45;100.00;159679.84;4991010;28;20030;-61
2023/03/01 07:50:53;;;;;;;24.35;19.20;;;;;;;-3.22;100.00;159738.66;4997907;28;20042;-60
2023/03/01 07:53:19;;;;;;;28.17;18.48;;;;;;;-3.01;100.00;159792.13;4999402;28;20489;-60
2023/03/01 07:55:44;;;;;;;23.67;15.00;;;;;;;-2.79;100.00;159850.97;5004528;28;20501;-60
2023/03/01 07:58:09;;;;;;;16.88;13.63;;;;;;;-2.57;100.00;159908.44;4994007;28;20432;-61
2023/03/01 08:00:35;;;;;;;36.90;16.75;;;;;;;-2.34;100.00;159965.97;5003282;28;20042;-61
2023/03/01 08:03:01;;;;;;;18.05;13.73;;;;;;;-2.18;100.00;160007.44;5000467;28;20018;-61
2023/03/01 08:05:27;;;;;;;17.27;13.40;;;;;;;-1.93;100.00;160074.34;5001431;28;20038;-61
2023/03/01 08:07:53;;;;;;;16.10;14.45;;;;;;;-1.77;100.00;160114.50;4996259;28;20027;-60
2023/03/01 08:10:19;;;;;;;16.75;12.20;;;;;;;-1.54;100.00;160174.72;5005474;28;20048;-60
2023/03/01 08:12:45;;;;;;;14.45;12.25;;;;;;;-1.31;100.00;160235.00;4995617;28;20029;-61
2023/03/01 08:15:11;;;;;;;19.25;14.60;;;;;;;-1.09;100.00;160291.22;4997269;28;20047;-60
2023/03/01 08:17:36;;;;;;;17.38;11.85;;;;;;;-0.87;100.00;160347.47;4993195;28;20026;-60
2023/03/01 08:20:03;;;;;;;18.00;11.70;;;;;;;-0.50;100.00;160443.91;5000439;28;20401;-60
2023/03/01 08:22:28;;;;;;;12.90;10.43;;;;;;;-0.08;100.00;160553.75;4994358;28;20059;-60
2023/03/01 08:24:55;;;;;;;17.17;10.80;;;;;;;0.54;100.00;160714.59;4998268;28;20041;-60
2023/03/01 08:27:21;;;;;;;11.75;8.70;;;;;;;1.42;100.00;160942.56;5000178;28;20053;-61
2023/03/01 08:29:46;;;;;;;15.68;9.07;;;;;;;2.93;100.00;161335.81;4981901;28;20026;-60
2023/03/01 08:32:11;;;;;;;15.32;9.13;;;;;;;4.33;100.00;161699.94;5001634;28;20508;-61
2023/03/01 08:34:37;;;;;;;11.10;8.68;;;;;;;5.30;100.00;161952.72;5002148;28;20385;-61
2023/03/01 08:37:02;;;;;;;9.80;8.43;;;;;;;6.26;100.00;162201.69;4996116;28;20022;-61
2023/03/01 08:39:27;;;;;;;8.15;6.85;;;;;;;6.70;100.00;162316.13;4999791;28;20026;-61
2023/03/01 08:41:53;;;;;;;8.32;7.45;;;;;;;7.05;100.00;162409.03;4990605;28;20045;-61
2023/03/01 08:44:20;;;;;;;11.77;7.80;;;;;;;7.12;100.00;162426.53;5010621;28;20025;-61
2023/03/01 08:46:46;;;;;;;10.02;7.43;;;;;;;7.33;100.00;162480.44;4997608;28;20136;-61
2023/03/01 08:49:14;;;;;;;10.10;6.63;;;;;;;8.11;100.00;162685.19;5003773;28;20478;-61
2023/03/01 08:51:39;;;;;;;11.25;6.72;;;;;;;8.44;100.00;162771.50;5003460;28;20041;-61
2023/03/01 08:54:07;;;;;;;9.70;6.50;;;;;;;8.18;100.00;162702.75;4997157;28;20088;-61
2023/03/01 08:56:33;;;;;;;9.45;6.80;;;;;;;8.59;100.00;162809.28;4978585;28;20038;-61
2023/03/01 08:58:58;;;;;;;8.23;6.13;;;;;;;8.91;100.00;162894.22;5006182;28;20474;-61
2023/03/01 09:01:24;;;;;;;7.18;6.47;;;;;;;8.02;100.00;162662.31;5002318;28;20096;-61
2023/03/01 09:03:49;;;;;;;9.05;5.72;;;;;;;7.95;100.00;162643.44;4998488;28;20041;-61
2023/03/01 09:06:15;;;;;;;8.05;6.18;;;;;;;7.58;100.00;162547.75;5008998;28;20046;-61
2023/03/01 09:08:43;;;;;;;7.80;6.90;;;;;;;7.84;100.00;162615.16;4998200;28;20081;-61
2023/03/01 09:11:11;;;;;;;12.60;7.03;;;;;;;7.73;100.00;162585.47;5003610;28;20065;-61
2023/03/01 09:13:36;;;;;;;6.32;5.50;;;;;;;8.50;100.00;162787.72;5005683;28;20535;-61
2023/03/01 09:16:04;;;;;;;12.73;6.72;;;;;;;8.59;100.00;162809.28;4996607;28;20042;-61
2023/03/01 09:18:30;;;;;;;7.63;6.78;;;;;;;8.88;100.00;162887.47;5009034;28;20389;-61
2023/03/01 09:21:09;;;;;;;6.72;6.05;;;;;;;8.79;100.00;162861.81;4999037;28;20181;-61
2023/03/01 09:23:38;;;;;;;8.57;6.18;;;;;;;8.81;100.00;162868.59;4998135;28;20042;-62
2023/03/01 09:26:03;;;;;;;7.38;5.78;;;;;;;8.99;100.00;162915.78;5003717;28;20494;-61
2023/03/01 09:28:29;;;;;;;8.13;5.90;;;;;;;9.29;100.00;162992.63;4992098;28;20037;-61
2023/03/01 09:30:58;;;;;;;14.38;5.53;;;;;;;9.10;100.00;162944.09;4994301;28;20054;-61
2023/03/01 09:33:23;;;;;;;9.77;6.65;;;;;;;8.96;100.00;162906.34;5002419;28;20054;-61
2023/03/01 09:35:48;;;;;;;7.35;5.85;;;;;;;9.57;100.00;163065.50;5005612;28;20072;-61
2023/03/01 09:38:14;;;;;;;9.10;6.72;;;;;;;9.76;100.00;163116.75;4996384;28;20030;-61
2023/03/01 09:40:46;;;;;;;8.77;6.15;;;;;;;8.79;100.00;162861.81;5007487;28;20038;-61
2023/03/01 09:43:25;;;;;;;5.65;4.70;;;;;;;8.53;100.00;162795.75;5004251;28;20049;-61
2023/03/01 09:45:54;;;;;;;5.40;4.80;;;;;;;8.48;100.00;162782.28;4991525;28;20553;-61
2023/03/01 09:48:23;;;;;;;5.82;5.05;;;;;;;8.08;100.00;162677.09;4993789;28;20026;-61
2023/03/01 09:50:50;;;;;;;8.40;5.68;;;;;;;8.05;100.00;162669.03;4991273;28;20185;-61
2023/03/01 09:53:18;;;;;;;8.20;5.88;;;;;;;8.19;100.00;162706.78;4990265;28;20030;-61
2023/03/01 09:55:56;;;;;;;8.13;6.03;;;;;;;8.48;100.00;162782.28;4989578;28;20556;-61
2023/03/01 09:58:43;;;;;;;6.38;5.40;;;;;;;8.66;100.00;162828.16;4991604;28;20053;-61
2023/03/01 10:01:29;;;;;;;6.22;5.68;;;;;;;8.42;100.00;162766.09;4990003;28;20096;-61
2023/03/01 10:04:03;;;;;;;7.55;6.70;;;;;;;8.20;100.00;162709.47;4991071;28;20038;-61
2023/03/01 10:06:28;;;;;;;9.75;5.63;;;;;;;7.73;100.00;162586.88;4990599;28;20077;-61
2023/03/01 10:09:10;;;;;;;6.25;5.25;;;;;;;7.77;100.00;162596.28;4993070;28;20082;-61
2023/03/01 10:11:39;;;;;;;7.00;5.88;;;;;;;7.93;100.00;162638.03;4991216;28;20332;-61
2023/03/01 10:14:30;;;;;;;7.10;6.10;;;;;;;8.24;100.00;162720.25;4993333;28;20062;-61
2023/03/01 10:17:18;;;;;;;17.83;7.95;;;;;;;8.22;100.00;162714.88;4990959;28;20042;-61
2023/03/01 10:19:45;;;;;;;8.68;4.80;;;;;;;8.72;100.00;162844.31;4991279;28;20030;-61
2023/03/01 10:22:27;;;;;;;8.93;6.22;;;;;;;8.78;100.00;162860.50;4993084;28;20055;-61
2023/03/01 10:24:55;;;;;;;4.78;4.38;;;;;;;8.33;100.00;162741.81;4990735;28;22339;-61
2023/03/01 10:27:26;;;;;;;6.10;5.13;;;;;;;7.83;100.00;162612.44;4992859;28;20034;-61
2023/03/01 10:30:02;;;;;;;6.07;4.93;;;;;;;7.33;100.00;162480.44;4990851;28;20023;-61
2023/03/01 10:32:28;;;;;;;6.35;5.25;;;;;;;7.45;100.00;162512.75;4992633;28;20028;-61
2023/03/01 10:34:54;;;;;;;6.07;5.03;;;;;;;7.84;100.00;162615.16;4989002;28;20038;-61
2023/03/01 10:37:25;;;;;;;8.93;5.60;;;;;;;8.00;100.00;162655.59;4992196;28;20355;-61
2023/03/01 10:39:56;;;;;;;8.93;6.85;;;;;;;8.47;100.00;162779.59;4981326;28;20030;-61
2023/03/01 10:42:38;;;;;;;8.15;5.85;;;;;;;8.81;100.00;162868.59;4981828;28;20034;-61
2023/03/01 10:45:30;;;;;;;7.75;5.35;;;;;;;9.42;100.00;163026.34;4988597;28;20113;-61
2023/03/01 10:48:14;;;;;;;5.90;5.32;;;;;;;9.63;100.00;163083.00;4982940;28;20085;-61
2023/03/01 10:51:04;;;;;;;6.63;5.38;;;;;;;9.62;100.00;163078.97;4971859;28;20041;-61
2023/03/01 10:53:34;;;;;;;10.23;6.07;;;;;;;9.28;100.00;162989.91;4976168;28;20018;-61
2023/03/01 10:56:06;;;;;;;5.55;4.72;;;;;;;9.48;100.00;163043.91;4990353;28;20039;-60
2023/03/01 10:58:33;;;;;;;9.38;6.20;;;;;;;9.40;100.00;163022.31;4992072;28;20035;-60
2023/03/01 11:01:04;;;;;;;5.70;4.43;;;;;;;9.28;100.00;162989.91;4990577;28;20049;-62
2023/03/01 11:03:35;;;;;;;10.18;7.00;;;;;;;9.32;100.00;163000.75;4985385;28;20057;-62
2023/03/01 11:06:12;;;;;;;8.38;5.45;;;;;;;9.52;100.00;163053.34;4979533;28;20038;-62
2023/03/01 11:08:42;;;;;;;5.80;4.70;;;;;;;9.71;100.00;163103.25;4977180;28;20052;-61
2023/03/01 11:11:25;;;;;;;8.63;6.43;;;;;;;10.11;100.00;163208.47;4974508;28;20129;-61